Historique des mesures à Cassis (13260), France
Quotidien Résumé Fevrier 4, 2018 Unités:  US    Métrique   Métrique/US
« Précédent (Jour)
Suivant (Jour) »
Quotidien Hebdomadaire Mensuel Annuel Période au choix
  Maximum: Minimum: Moyenne:
Température: 32 °F 39.2 °F 45.3 °F
Point de rosée: 32 °F 25.5 °F 30.7 °F
Humidité: Humidity % 48 % 53 %
Vitesse du vent: WindSpeedKMH mph 0.0 mph 1.4 mph
Rafales: WindSpeedGustKMH mph - -
Vent:- - ESE
Pression: 0 in 29.7 in -
Précipitations: 0.0 in    
Historical Graphs
 
 
Mesures pour : Fevrier 4, 2018
Heure Temperature Point de rosée Pression Vent Vitesse du vent Rafales Humidité Pluie (par heure)
32 °F 32 °F 0 in Calm     Humidity % HourlyPrecipMM in
00:12 43.2 °F 27.1 °F 29.7 in North 7.6 mph 7.6 mph 53 % 0.0 in
01:12 43 °F 26.4 °F 29.7 in Calm     52 % 0.0 in
02:12 41.9 °F 26.8 °F 29.7 in Calm     55 % 0.0 in
03:12 41.7 °F 26.2 °F 29.7 in NNW 1.4 mph 1.4 mph 54 % 0.0 in
04:12 42.1 °F 25.7 °F 29.7 in Calm     52 % 0.0 in
05:12 40.6 °F 26.1 °F 29.7 in Calm   2.9 mph 56 % 0.0 in
06:12 41.5 °F 26.1 °F 29.7 in Calm   2.6 mph 54 % 0.0 in
07:12 39.6 °F 25.9 °F 29.8 in Calm     58 % 0.0 in
08:12 39.2 °F 25.5 °F 29.8 in Calm     58 % 0.0 in
09:12 43 °F 27.9 °F 29.8 in ESE 2.6 mph 2.6 mph 55 % 0.0 in
10:12 44.6 °F 27.1 °F 29.8 in NNE 3.2 mph 6.8 mph 50 % 0.0 in
12:12 49.6 °F 30.7 °F 29.8 in NE 4.3 mph 4.3 mph 48 % 0.0 in
13:12 51.6 °F 33.6 °F 29.8 in SW 11.9 mph 11.9 mph 50 % 0.0 in
14:12 52 °F 34.3 °F 29.8 in Calm   3.2 mph 51 % 0.0 in
15:12 51.6 °F 34.5 °F 29.8 in Calm   7.2 mph 52 % 0.0 in
16:12 51.6 °F 34.5 °F 29.8 in ESE 1.8 mph 1.8 mph 52 % 0.0 in
17:12 50.9 °F 34.9 °F 29.8 in Calm     54 % 0.0 in
18:12 48.6 °F 34.9 °F 29.8 in Calm     59 % 0.0 in
19:12 47.5 °F 34.7 °F 29.8 in Calm     61 % 0.0 in
20:12 46.9 °F 34.2 °F 29.9 in Calm     61 % 0.0 in
21:12 47.8 °F 34.7 °F 29.8 in Calm     60 % 0.0 in
22:12 47.5 °F 35.4 °F 29.9 in Calm     63 % 0.0 in
23:12 48.4 °F 37.9 °F 29.9 in East 1.4 mph 4.3 mph 67 % 0.0 in
Observations météo à CASSIS
WU-History script by Weather Underground - 1 mb